sensor_id;sensor_type;location;lat;lon;timestamp;P1;durP1;ratioP1;P2;durP2;ratioP2
8803;SDS011;4438;50.890;4.726;2023-12-07T00:00:10;29.27;;;17.30;;
8803;SDS011;4438;50.890;4.726;2023-12-07T00:02:36;28.20;;;16.77;;
8803;SDS011;4438;50.890;4.726;2023-12-07T00:05:02;31.60;;;16.43;;
8803;SDS011;4438;50.890;4.726;2023-12-07T00:07:28;30.77;;;16.17;;
8803;SDS011;4438;50.890;4.726;2023-12-07T00:09:54;29.07;;;16.07;;
8803;SDS011;4438;50.890;4.726;2023-12-07T00:12:20;30.67;;;17.40;;
8803;SDS011;4438;50.890;4.726;2023-12-07T00:14:46;30.87;;;17.10;;
8803;SDS011;4438;50.890;4.726;2023-12-07T00:17:13;26.83;;;16.00;;
8803;SDS011;4438;50.890;4.726;2023-12-07T00:19:39;29.20;;;17.40;;
8803;SDS011;4438;50.890;4.726;2023-12-07T00:22:05;31.07;;;17.93;;
8803;SDS011;4438;50.890;4.726;2023-12-07T00:24:31;30.53;;;16.63;;
8803;SDS011;4438;50.890;4.726;2023-12-07T00:26:57;33.00;;;18.37;;
8803;SDS011;4438;50.890;4.726;2023-12-07T00:29:23;30.60;;;18.30;;
8803;SDS011;4438;50.890;4.726;2023-12-07T00:31:49;31.60;;;18.63;;
8803;SDS011;4438;50.890;4.726;2023-12-07T00:34:17;34.47;;;17.63;;
8803;SDS011;4438;50.890;4.726;2023-12-07T00:36:43;31.17;;;17.83;;
8803;SDS011;4438;50.890;4.726;2023-12-07T00:39:09;31.40;;;17.30;;
8803;SDS011;4438;50.890;4.726;2023-12-07T00:41:36;35.57;;;18.20;;
8803;SDS011;4438;50.890;4.726;2023-12-07T00:44:02;36.27;;;18.33;;
8803;SDS011;4438;50.890;4.726;2023-12-07T00:46:28;29.73;;;17.43;;
8803;SDS011;4438;50.890;4.726;2023-12-07T00:48:54;27.07;;;17.03;;
8803;SDS011;4438;50.890;4.726;2023-12-07T00:51:20;30.03;;;16.40;;
8803;SDS011;4438;50.890;4.726;2023-12-07T00:53:46;28.87;;;17.40;;
8803;SDS011;4438;50.890;4.726;2023-12-07T00:56:12;31.63;;;17.73;;
8803;SDS011;4438;50.890;4.726;2023-12-07T00:58:38;31.57;;;17.43;;
8803;SDS011;4438;50.890;4.726;2023-12-07T01:01:04;27.77;;;16.97;;
8803;SDS011;4438;50.890;4.726;2023-12-07T01:03:31;30.10;;;17.17;;
8803;SDS011;4438;50.890;4.726;2023-12-07T01:05:57;32.30;;;18.50;;
8803;SDS011;4438;50.890;4.726;2023-12-07T01:08:23;29.10;;;17.47;;
8803;SDS011;4438;50.890;4.726;2023-12-07T01:10:49;28.93;;;16.83;;
8803;SDS011;4438;50.890;4.726;2023-12-07T01:13:15;27.87;;;16.50;;
8803;SDS011;4438;50.890;4.726;2023-12-07T01:15:41;25.47;;;14.93;;
8803;SDS011;4438;50.890;4.726;2023-12-07T01:18:07;27.23;;;15.77;;
8803;SDS011;4438;50.890;4.726;2023-12-07T01:20:33;27.93;;;15.67;;
8803;SDS011;4438;50.890;4.726;2023-12-07T01:22:59;28.33;;;16.27;;
8803;SDS011;4438;50.890;4.726;2023-12-07T01:25:25;30.43;;;17.40;;
8803;SDS011;4438;50.890;4.726;2023-12-07T01:27:52;29.67;;;17.17;;
8803;SDS011;4438;50.890;4.726;2023-12-07T01:30:18;29.83;;;16.57;;
8803;SDS011;4438;50.890;4.726;2023-12-07T01:32:44;27.07;;;16.27;;
8803;SDS011;4438;50.890;4.726;2023-12-07T01:35:10;27.43;;;15.77;;
8803;SDS011;4438;50.890;4.726;2023-12-07T01:37:37;27.87;;;16.50;;
8803;SDS011;4438;50.890;4.726;2023-12-07T01:40:03;30.13;;;16.97;;
8803;SDS011;4438;50.890;4.726;2023-12-07T01:42:35;30.83;;;16.73;;
8803;SDS011;4438;50.890;4.726;2023-12-07T01:45:02;27.47;;;16.17;;
8803;SDS011;4438;50.890;4.726;2023-12-07T01:47:28;26.17;;;15.67;;
8803;SDS011;4438;50.890;4.726;2023-12-07T01:49:54;28.20;;;15.77;;
8803;SDS011;4438;50.890;4.726;2023-12-07T01:52:20;28.20;;;16.73;;
8803;SDS011;4438;50.890;4.726;2023-12-07T01:54:48;30.30;;;17.43;;
8803;SDS011;4438;50.890;4.726;2023-12-07T01:57:14;32.80;;;18.23;;
8803;SDS011;4438;50.890;4.726;2023-12-07T01:59:40;33.60;;;17.90;;
8803;SDS011;4438;50.890;4.726;2023-12-07T02:02:06;33.10;;;18.17;;
8803;SDS011;4438;50.890;4.726;2023-12-07T02:04:32;33.47;;;17.67;;
8803;SDS011;4438;50.890;4.726;2023-12-07T02:07:00;32.07;;;18.87;;
8803;SDS011;4438;50.890;4.726;2023-12-07T02:09:27;34.70;;;19.60;;
8803;SDS011;4438;50.890;4.726;2023-12-07T02:11:53;33.80;;;18.47;;
8803;SDS011;4438;50.890;4.726;2023-12-07T02:14:19;34.07;;;18.20;;
8803;SDS011;4438;50.890;4.726;2023-12-07T02:16:48;34.83;;;19.73;;
8803;SDS011;4438;50.890;4.726;2023-12-07T02:21:59;35.43;;;19.97;;
8803;SDS011;4438;50.890;4.726;2023-12-07T02:24:27;36.57;;;20.00;;
8803;SDS011;4438;50.890;4.726;2023-12-07T02:26:54;35.87;;;21.10;;
8803;SDS011;4438;50.890;4.726;2023-12-07T02:29:20;39.20;;;22.13;;
8803;SDS011;4438;50.890;4.726;2023-12-07T02:31:46;36.70;;;20.20;;
8803;SDS011;4438;50.890;4.726;2023-12-07T02:34:12;38.60;;;23.30;;
8803;SDS011;4438;50.890;4.726;2023-12-07T02:36:38;36.10;;;20.70;;
8803;SDS011;4438;50.890;4.726;2023-12-07T02:39:05;36.27;;;21.10;;
8803;SDS011;4438;50.890;4.726;2023-12-07T02:41:32;34.70;;;21.00;;
8803;SDS011;4438;50.890;4.726;2023-12-07T02:43:59;33.03;;;20.30;;
8803;SDS011;4438;50.890;4.726;2023-12-07T02:46:25;32.47;;;20.10;;
8803;SDS011;4438;50.890;4.726;2023-12-07T02:48:52;34.37;;;20.90;;
8803;SDS011;4438;50.890;4.726;2023-12-07T02:51:18;32.20;;;20.47;;
8803;SDS011;4438;50.890;4.726;2023-12-07T02:53:44;29.73;;;19.13;;
8803;SDS011;4438;50.890;4.726;2023-12-07T02:56:10;30.47;;;19.63;;
8803;SDS011;4438;50.890;4.726;2023-12-07T02:58:36;31.53;;;18.73;;
8803;SDS011;4438;50.890;4.726;2023-12-07T03:01:02;26.27;;;17.87;;
8803;SDS011;4438;50.890;4.726;2023-12-07T03:03:28;25.33;;;17.17;;
8803;SDS011;4438;50.890;4.726;2023-12-07T03:05:55;26.80;;;17.57;;
8803;SDS011;4438;50.890;4.726;2023-12-07T03:08:21;23.60;;;16.07;;
8803;SDS011;4438;50.890;4.726;2023-12-07T03:10:47;30.57;;;18.50;;
8803;SDS011;4438;50.890;4.726;2023-12-07T03:13:13;30.13;;;17.40;;
8803;SDS011;4438;50.890;4.726;2023-12-07T03:15:39;28.73;;;17.63;;
8803;SDS011;4438;50.890;4.726;2023-12-07T03:18:05;26.13;;;17.00;;
8803;SDS011;4438;50.890;4.726;2023-12-07T03:20:32;27.37;;;16.90;;
8803;SDS011;4438;50.890;4.726;2023-12-07T03:22:58;26.13;;;17.10;;
8803;SDS011;4438;50.890;4.726;2023-12-07T03:25:24;27.27;;;17.37;;
8803;SDS011;4438;50.890;4.726;2023-12-07T03:27:50;27.33;;;17.57;;
8803;SDS011;4438;50.890;4.726;2023-12-07T03:30:17;25.93;;;16.77;;
8803;SDS011;4438;50.890;4.726;2023-12-07T03:32:43;27.40;;;18.07;;
8803;SDS011;4438;50.890;4.726;2023-12-07T03:35:09;26.17;;;17.57;;
8803;SDS011;4438;50.890;4.726;2023-12-07T03:37:35;26.87;;;17.20;;
8803;SDS011;4438;50.890;4.726;2023-12-07T03:40:01;23.67;;;15.97;;
8803;SDS011;4438;50.890;4.726;2023-12-07T03:42:29;24.30;;;15.97;;
8803;SDS011;4438;50.890;4.726;2023-12-07T03:44:55;24.60;;;15.97;;
8803;SDS011;4438;50.890;4.726;2023-12-07T03:47:21;23.40;;;16.90;;
8803;SDS011;4438;50.890;4.726;2023-12-07T03:49:47;25.03;;;16.17;;
8803;SDS011;4438;50.890;4.726;2023-12-07T03:52:13;27.47;;;15.83;;
8803;SDS011;4438;50.890;4.726;2023-12-07T03:54:40;24.47;;;16.20;;
8803;SDS011;4438;50.890;4.726;2023-12-07T03:57:06;24.37;;;16.63;;
8803;SDS011;4438;50.890;4.726;2023-12-07T03:59:32;21.10;;;15.37;;
8803;SDS011;4438;50.890;4.726;2023-12-07T04:01:58;23.57;;;15.67;;
8803;SDS011;4438;50.890;4.726;2023-12-07T04:04:24;24.13;;;16.70;;
8803;SDS011;4438;50.890;4.726;2023-12-07T04:06:50;27.20;;;16.00;;
8803;SDS011;4438;50.890;4.726;2023-12-07T04:09:16;23.43;;;16.43;;
8803;SDS011;4438;50.890;4.726;2023-12-07T04:11:42;22.80;;;16.47;;
8803;SDS011;4438;50.890;4.726;2023-12-07T04:14:08;24.73;;;16.43;;
8803;SDS011;4438;50.890;4.726;2023-12-07T04:16:34;24.27;;;17.43;;
8803;SDS011;4438;50.890;4.726;2023-12-07T04:19:00;24.43;;;17.03;;
8803;SDS011;4438;50.890;4.726;2023-12-07T04:21:27;26.73;;;17.77;;
8803;SDS011;4438;50.890;4.726;2023-12-07T04:23:53;24.03;;;17.77;;
8803;SDS011;4438;50.890;4.726;2023-12-07T04:26:19;27.53;;;18.70;;
8803;SDS011;4438;50.890;4.726;2023-12-07T04:28:45;26.33;;;18.70;;
8803;SDS011;4438;50.890;4.726;2023-12-07T04:31:11;26.20;;;17.67;;
8803;SDS011;4438;50.890;4.726;2023-12-07T04:33:37;25.77;;;18.17;;
8803;SDS011;4438;50.890;4.726;2023-12-07T04:36:04;23.07;;;17.03;;
8803;SDS011;4438;50.890;4.726;2023-12-07T04:38:30;23.83;;;16.73;;
8803;SDS011;4438;50.890;4.726;2023-12-07T04:40:57;24.00;;;16.50;;
8803;SDS011;4438;50.890;4.726;2023-12-07T04:43:23;23.97;;;16.63;;
8803;SDS011;4438;50.890;4.726;2023-12-07T04:45:49;23.90;;;17.10;;
8803;SDS011;4438;50.890;4.726;2023-12-07T04:48:15;23.90;;;16.97;;
8803;SDS011;4438;50.890;4.726;2023-12-07T04:50:41;23.70;;;16.63;;
8803;SDS011;4438;50.890;4.726;2023-12-07T04:53:07;22.73;;;16.37;;
8803;SDS011;4438;50.890;4.726;2023-12-07T04:55:33;21.20;;;15.83;;
8803;SDS011;4438;50.890;4.726;2023-12-07T04:58:00;20.97;;;15.80;;
8803;SDS011;4438;50.890;4.726;2023-12-07T05:00:26;21.57;;;15.47;;
8803;SDS011;4438;50.890;4.726;2023-12-07T05:02:53;20.30;;;15.20;;
8803;SDS011;4438;50.890;4.726;2023-12-07T05:05:19;20.70;;;15.00;;
8803;SDS011;4438;50.890;4.726;2023-12-07T05:07:45;20.57;;;14.80;;
8803;SDS011;4438;50.890;4.726;2023-12-07T05:10:11;17.87;;;13.17;;
8803;SDS011;4438;50.890;4.726;2023-12-07T05:12:37;20.70;;;15.13;;
8803;SDS011;4438;50.890;4.726;2023-12-07T05:15:03;17.70;;;13.40;;
8803;SDS011;4438;50.890;4.726;2023-12-07T05:17:31;20.30;;;13.63;;
8803;SDS011;4438;50.890;4.726;2023-12-07T05:19:57;15.90;;;12.30;;
8803;SDS011;4438;50.890;4.726;2023-12-07T05:22:23;17.67;;;12.60;;
8803;SDS011;4438;50.890;4.726;2023-12-07T05:24:49;19.43;;;13.40;;
8803;SDS011;4438;50.890;4.726;2023-12-07T05:27:16;15.00;;;12.20;;
8803;SDS011;4438;50.890;4.726;2023-12-07T05:29:42;16.40;;;11.80;;
8803;SDS011;4438;50.890;4.726;2023-12-07T05:32:08;19.20;;;12.93;;
8803;SDS011;4438;50.890;4.726;2023-12-07T05:34:34;18.93;;;12.40;;
8803;SDS011;4438;50.890;4.726;2023-12-07T05:37:01;15.70;;;11.83;;
8803;SDS011;4438;50.890;4.726;2023-12-07T05:39:27;15.67;;;12.20;;
8803;SDS011;4438;50.890;4.726;2023-12-07T05:41:53;15.07;;;11.80;;
8803;SDS011;4438;50.890;4.726;2023-12-07T05:44:19;15.30;;;11.77;;
8803;SDS011;4438;50.890;4.726;2023-12-07T05:46:47;14.87;;;11.77;;
8803;SDS011;4438;50.890;4.726;2023-12-07T05:49:13;14.63;;;12.27;;
8803;SDS011;4438;50.890;4.726;2023-12-07T05:51:40;14.17;;;11.20;;
8803;SDS011;4438;50.890;4.726;2023-12-07T05:54:06;13.77;;;10.67;;
8803;SDS011;4438;50.890;4.726;2023-12-07T05:56:32;15.70;;;11.83;;
8803;SDS011;4438;50.890;4.726;2023-12-07T05:58:58;14.47;;;11.43;;
8803;SDS011;4438;50.890;4.726;2023-12-07T06:01:24;16.43;;;11.33;;
8803;SDS011;4438;50.890;4.726;2023-12-07T06:03:50;15.23;;;11.90;;
8803;SDS011;4438;50.890;4.726;2023-12-07T06:06:16;16.20;;;11.50;;
8803;SDS011;4438;50.890;4.726;2023-12-07T06:08:42;17.67;;;11.63;;
8803;SDS011;4438;50.890;4.726;2023-12-07T06:11:09;15.77;;;11.77;;
8803;SDS011;4438;50.890;4.726;2023-12-07T06:13:35;17.37;;;12.43;;
8803;SDS011;4438;50.890;4.726;2023-12-07T06:16:01;16.67;;;11.73;;
8803;SDS011;4438;50.890;4.726;2023-12-07T06:18:28;17.07;;;12.37;;
8803;SDS011;4438;50.890;4.726;2023-12-07T06:20:54;15.47;;;12.00;;
8803;SDS011;4438;50.890;4.726;2023-12-07T06:23:20;17.37;;;13.40;;
8803;SDS011;4438;50.890;4.726;2023-12-07T06:25:46;17.07;;;11.90;;
8803;SDS011;4438;50.890;4.726;2023-12-07T06:28:12;16.87;;;12.37;;
8803;SDS011;4438;50.890;4.726;2023-12-07T06:30:38;15.57;;;11.67;;
8803;SDS011;4438;50.890;4.726;2023-12-07T06:33:04;18.77;;;13.10;;
8803;SDS011;4438;50.890;4.726;2023-12-07T06:35:30;17.13;;;12.67;;
8803;SDS011;4438;50.890;4.726;2023-12-07T06:37:56;18.07;;;13.00;;
8803;SDS011;4438;50.890;4.726;2023-12-07T06:40:22;19.40;;;13.47;;
8803;SDS011;4438;50.890;4.726;2023-12-07T06:42:49;19.23;;;13.50;;
8803;SDS011;4438;50.890;4.726;2023-12-07T06:45:15;18.93;;;14.13;;
8803;SDS011;4438;50.890;4.726;2023-12-07T06:47:41;18.00;;;13.37;;
8803;SDS011;4438;50.890;4.726;2023-12-07T06:50:07;19.10;;;13.30;;
8803;SDS011;4438;50.890;4.726;2023-12-07T06:52:35;18.10;;;14.13;;
8803;SDS011;4438;50.890;4.726;2023-12-07T06:55:01;18.50;;;13.57;;
8803;SDS011;4438;50.890;4.726;2023-12-07T06:57:27;23.73;;;14.90;;
8803;SDS011;4438;50.890;4.726;2023-12-07T06:59:53;19.47;;;14.23;;
8803;SDS011;4438;50.890;4.726;2023-12-07T07:02:19;19.90;;;15.13;;
8803;SDS011;4438;50.890;4.726;2023-12-07T07:04:46;23.50;;;16.30;;
8803;SDS011;4438;50.890;4.726;2023-12-07T07:07:14;17.90;;;13.93;;
8803;SDS011;4438;50.890;4.726;2023-12-07T07:09:40;20.50;;;15.90;;
8803;SDS011;4438;50.890;4.726;2023-12-07T07:12:06;19.87;;;14.13;;
8803;SDS011;4438;50.890;4.726;2023-12-07T07:14:32;21.90;;;14.90;;
8803;SDS011;4438;50.890;4.726;2023-12-07T07:16:59;18.70;;;13.77;;
8803;SDS011;4438;50.890;4.726;2023-12-07T07:19:25;20.50;;;13.63;;
8803;SDS011;4438;50.890;4.726;2023-12-07T07:21:51;20.07;;;13.80;;
8803;SDS011;4438;50.890;4.726;2023-12-07T07:24:17;16.53;;;12.83;;
8803;SDS011;4438;50.890;4.726;2023-12-07T07:26:43;17.70;;;12.33;;
8803;SDS011;4438;50.890;4.726;2023-12-07T07:29:09;18.13;;;13.20;;
8803;SDS011;4438;50.890;4.726;2023-12-07T07:31:35;17.13;;;12.30;;
8803;SDS011;4438;50.890;4.726;2023-12-07T07:34:01;14.53;;;11.13;;
8803;SDS011;4438;50.890;4.726;2023-12-07T07:36:28;19.47;;;12.97;;
8803;SDS011;4438;50.890;4.726;2023-12-07T07:38:54;15.60;;;11.70;;
8803;SDS011;4438;50.890;4.726;2023-12-07T07:41:20;17.63;;;13.13;;
8803;SDS011;4438;50.890;4.726;2023-12-07T07:43:46;15.90;;;10.57;;
8803;SDS011;4438;50.890;4.726;2023-12-07T07:46:13;18.10;;;12.90;;
8803;SDS011;4438;50.890;4.726;2023-12-07T07:48:39;16.27;;;12.13;;
8803;SDS011;4438;50.890;4.726;2023-12-07T07:51:05;14.57;;;11.37;;
8803;SDS011;4438;50.890;4.726;2023-12-07T07:53:31;14.80;;;11.33;;
8803;SDS011;4438;50.890;4.726;2023-12-07T07:55:57;17.80;;;13.27;;
8803;SDS011;4438;50.890;4.726;2023-12-07T07:58:24;17.03;;;14.47;;
8803;SDS011;4438;50.890;4.726;2023-12-07T08:00:50;19.47;;;13.87;;
8803;SDS011;4438;50.890;4.726;2023-12-07T08:03:17;17.03;;;12.50;;
8803;SDS011;4438;50.890;4.726;2023-12-07T08:05:43;16.83;;;12.77;;
8803;SDS011;4438;50.890;4.726;2023-12-07T08:08:09;19.03;;;13.60;;
8803;SDS011;4438;50.890;4.726;2023-12-07T08:10:36;15.00;;;12.40;;
8803;SDS011;4438;50.890;4.726;2023-12-07T08:13:04;17.77;;;12.90;;
8803;SDS011;4438;50.890;4.726;2023-12-07T08:15:32;18.00;;;13.63;;
8803;SDS011;4438;50.890;4.726;2023-12-07T08:17:58;22.30;;;13.90;;
8803;SDS011;4438;50.890;4.726;2023-12-07T08:20:24;19.87;;;13.30;;
8803;SDS011;4438;50.890;4.726;2023-12-07T08:22:51;17.50;;;13.53;;
8803;SDS011;4438;50.890;4.726;2023-12-07T08:25:17;19.80;;;14.10;;
8803;SDS011;4438;50.890;4.726;2023-12-07T08:27:43;21.67;;;14.93;;
8803;SDS011;4438;50.890;4.726;2023-12-07T08:30:11;21.47;;;15.73;;
8803;SDS011;4438;50.890;4.726;2023-12-07T08:32:38;17.90;;;13.87;;
8803;SDS011;4438;50.890;4.726;2023-12-07T08:35:04;19.40;;;14.10;;
8803;SDS011;4438;50.890;4.726;2023-12-07T08:37:33;24.27;;;15.20;;
8803;SDS011;4438;50.890;4.726;2023-12-07T08:39:59;19.57;;;16.20;;
8803;SDS011;4438;50.890;4.726;2023-12-07T08:42:25;18.80;;;14.57;;
8803;SDS011;4438;50.890;4.726;2023-12-07T08:44:52;21.20;;;15.67;;
8803;SDS011;4438;50.890;4.726;2023-12-07T08:47:18;19.60;;;14.20;;
8803;SDS011;4438;50.890;4.726;2023-12-07T08:49:44;23.07;;;15.83;;
8803;SDS011;4438;50.890;4.726;2023-12-07T08:52:10;20.47;;;14.00;;
8803;SDS011;4438;50.890;4.726;2023-12-07T08:54:36;17.87;;;13.77;;
8803;SDS011;4438;50.890;4.726;2023-12-07T08:57:02;16.77;;;12.77;;
8803;SDS011;4438;50.890;4.726;2023-12-07T08:59:28;22.47;;;13.90;;
8803;SDS011;4438;50.890;4.726;2023-12-07T09:01:55;18.50;;;14.27;;
8803;SDS011;4438;50.890;4.726;2023-12-07T09:04:21;20.50;;;13.93;;
8803;SDS011;4438;50.890;4.726;2023-12-07T09:06:47;20.80;;;14.47;;
8803;SDS011;4438;50.890;4.726;2023-12-07T09:09:13;19.50;;;13.77;;
8803;SDS011;4438;50.890;4.726;2023-12-07T09:11:39;20.87;;;13.93;;
8803;SDS011;4438;50.890;4.726;2023-12-07T09:14:05;18.83;;;12.60;;
8803;SDS011;4438;50.890;4.726;2023-12-07T09:16:31;19.90;;;12.93;;
8803;SDS011;4438;50.890;4.726;2023-12-07T09:18:57;17.23;;;11.93;;
8803;SDS011;4438;50.890;4.726;2023-12-07T09:21:23;15.93;;;11.83;;
8803;SDS011;4438;50.890;4.726;2023-12-07T09:23:50;19.13;;;12.37;;
8803;SDS011;4438;50.890;4.726;2023-12-07T09:26:16;16.47;;;12.50;;
8803;SDS011;4438;50.890;4.726;2023-12-07T09:28:42;15.87;;;12.23;;
8803;SDS011;4438;50.890;4.726;2023-12-07T09:31:08;17.03;;;11.87;;
8803;SDS011;4438;50.890;4.726;2023-12-07T09:33:34;16.90;;;11.97;;
8803;SDS011;4438;50.890;4.726;2023-12-07T09:36:00;14.93;;;12.27;;
8803;SDS011;4438;50.890;4.726;2023-12-07T09:38:28;16.67;;;11.90;;
8803;SDS011;4438;50.890;4.726;2023-12-07T09:40:54;15.33;;;12.17;;
8803;SDS011;4438;50.890;4.726;2023-12-07T09:43:20;17.73;;;12.63;;
8803;SDS011;4438;50.890;4.726;2023-12-07T09:45:47;16.80;;;12.27;;
8803;SDS011;4438;50.890;4.726;2023-12-07T09:48:13;16.60;;;12.17;;
8803;SDS011;4438;50.890;4.726;2023-12-07T09:50:40;17.80;;;13.73;;
8803;SDS011;4438;50.890;4.726;2023-12-07T09:53:07;16.50;;;12.40;;
8803;SDS011;4438;50.890;4.726;2023-12-07T09:55:33;17.60;;;13.10;;
8803;SDS011;4438;50.890;4.726;2023-12-07T09:57:59;13.80;;;11.50;;
8803;SDS011;4438;50.890;4.726;2023-12-07T10:00:26;14.53;;;11.83;;
8803;SDS011;4438;50.890;4.726;2023-12-07T10:02:52;16.00;;;12.17;;
8803;SDS011;4438;50.890;4.726;2023-12-07T10:05:18;15.53;;;12.03;;
8803;SDS011;4438;50.890;4.726;2023-12-07T10:07:45;15.23;;;11.33;;
8803;SDS011;4438;50.890;4.726;2023-12-07T10:10:14;18.97;;;12.33;;
8803;SDS011;4438;50.890;4.726;2023-12-07T10:12:59;16.00;;;11.83;;
8803;SDS011;4438;50.890;4.726;2023-12-07T10:15:25;13.93;;;11.60;;
8803;SDS011;4438;50.890;4.726;2023-12-07T10:17:56;15.87;;;11.87;;
8803;SDS011;4438;50.890;4.726;2023-12-07T10:20:24;17.83;;;11.97;;
8803;SDS011;4438;50.890;4.726;2023-12-07T10:23:03;15.93;;;11.87;;
8803;SDS011;4438;50.890;4.726;2023-12-07T10:25:30;13.23;;;11.03;;
8803;SDS011;4438;50.890;4.726;2023-12-07T10:27:56;13.47;;;10.67;;
8803;SDS011;4438;50.890;4.726;2023-12-07T10:30:22;14.40;;;10.23;;
8803;SDS011;4438;50.890;4.726;2023-12-07T10:32:50;15.50;;;10.70;;
8803;SDS011;4438;50.890;4.726;2023-12-07T10:35:17;15.97;;;10.23;;
8803;SDS011;4438;50.890;4.726;2023-12-07T10:37:44;14.47;;;10.00;;
8803;SDS011;4438;50.890;4.726;2023-12-07T10:40:12;12.53;;;10.13;;
8803;SDS011;4438;50.890;4.726;2023-12-07T10:42:38;15.27;;;10.60;;
8803;SDS011;4438;50.890;4.726;2023-12-07T10:45:06;14.07;;;10.97;;
8803;SDS011;4438;50.890;4.726;2023-12-07T10:47:34;14.37;;;10.63;;
8803;SDS011;4438;50.890;4.726;2023-12-07T10:50:01;13.37;;;10.33;;
8803;SDS011;4438;50.890;4.726;2023-12-07T10:52:28;13.50;;;10.53;;
8803;SDS011;4438;50.890;4.726;2023-12-07T10:55:02;13.20;;;9.57;;
8803;SDS011;4438;50.890;4.726;2023-12-07T10:57:29;13.67;;;9.67;;
8803;SDS011;4438;50.890;4.726;2023-12-07T10:59:57;13.53;;;9.97;;
8803;SDS011;4438;50.890;4.726;2023-12-07T11:02:23;12.93;;;9.47;;
8803;SDS011;4438;50.890;4.726;2023-12-07T11:04:52;13.80;;;9.30;;
8803;SDS011;4438;50.890;4.726;2023-12-07T11:07:20;11.70;;;8.80;;
8803;SDS011;4438;50.890;4.726;2023-12-07T11:09:50;11.93;;;9.33;;
8803;SDS011;4438;50.890;4.726;2023-12-07T11:12:19;11.50;;;9.43;;
8803;SDS011;4438;50.890;4.726;2023-12-07T11:14:48;13.23;;;9.20;;
8803;SDS011;4438;50.890;4.726;2023-12-07T11:17:14;18.10;;;13.73;;
8803;SDS011;4438;50.890;4.726;2023-12-07T11:19:45;12.37;;;9.00;;
8803;SDS011;4438;50.890;4.726;2023-12-07T11:22:12;12.67;;;9.37;;
8803;SDS011;4438;50.890;4.726;2023-12-07T11:24:51;14.10;;;9.33;;
8803;SDS011;4438;50.890;4.726;2023-12-07T11:27:18;10.87;;;8.37;;
8803;SDS011;4438;50.890;4.726;2023-12-07T11:29:45;11.23;;;8.50;;
8803;SDS011;4438;50.890;4.726;2023-12-07T11:32:12;10.90;;;9.00;;
8803;SDS011;4438;50.890;4.726;2023-12-07T11:37:08;11.50;;;9.10;;
8803;SDS011;4438;50.890;4.726;2023-12-07T11:39:39;12.13;;;9.03;;
8803;SDS011;4438;50.890;4.726;2023-12-07T11:42:19;11.47;;;8.77;;
8803;SDS011;4438;50.890;4.726;2023-12-07T11:44:48;12.60;;;8.50;;
8803;SDS011;4438;50.890;4.726;2023-12-07T11:47:16;11.97;;;8.97;;
8803;SDS011;4438;50.890;4.726;2023-12-07T11:49:43;13.10;;;9.60;;
8803;SDS011;4438;50.890;4.726;2023-12-07T11:52:13;10.83;;;8.17;;
8803;SDS011;4438;50.890;4.726;2023-12-07T11:54:39;8.83;;;7.93;;
8803;SDS011;4438;50.890;4.726;2023-12-07T11:57:06;11.37;;;9.10;;
8803;SDS011;4438;50.890;4.726;2023-12-07T11:59:32;10.47;;;8.63;;
8803;SDS011;4438;50.890;4.726;2023-12-07T12:02:01;10.50;;;7.83;;
8803;SDS011;4438;50.890;4.726;2023-12-07T12:04:28;13.00;;;8.73;;
8803;SDS011;4438;50.890;4.726;2023-12-07T12:06:54;10.53;;;8.37;;
8803;SDS011;4438;50.890;4.726;2023-12-07T12:09:20;9.90;;;8.20;;
8803;SDS011;4438;50.890;4.726;2023-12-07T12:11:46;9.97;;;8.77;;
8803;SDS011;4438;50.890;4.726;2023-12-07T12:14:16;9.33;;;8.07;;
8803;SDS011;4438;50.890;4.726;2023-12-07T12:16:45;11.40;;;8.10;;
8803;SDS011;4438;50.890;4.726;2023-12-07T12:19:12;10.37;;;8.50;;
8803;SDS011;4438;50.890;4.726;2023-12-07T12:21:40;11.37;;;8.90;;
8803;SDS011;4438;50.890;4.726;2023-12-07T12:24:06;12.00;;;8.60;;
8803;SDS011;4438;50.890;4.726;2023-12-07T12:26:34;11.77;;;8.67;;
8803;SDS011;4438;50.890;4.726;2023-12-07T12:29:00;11.53;;;9.27;;
8803;SDS011;4438;50.890;4.726;2023-12-07T12:31:28;11.63;;;9.07;;
8803;SDS011;4438;50.890;4.726;2023-12-07T12:33:54;12.43;;;8.53;;
8803;SDS011;4438;50.890;4.726;2023-12-07T12:36:20;10.87;;;8.67;;
8803;SDS011;4438;50.890;4.726;2023-12-07T12:38:48;12.63;;;7.93;;
8803;SDS011;4438;50.890;4.726;2023-12-07T12:41:19;10.17;;;9.07;;
8803;SDS011;4438;50.890;4.726;2023-12-07T12:43:45;11.03;;;8.70;;
8803;SDS011;4438;50.890;4.726;2023-12-07T12:46:12;12.07;;;8.83;;
8803;SDS011;4438;50.890;4.726;2023-12-07T12:48:57;10.10;;;8.50;;
8803;SDS011;4438;50.890;4.726;2023-12-07T12:51:28;11.00;;;8.73;;
8803;SDS011;4438;50.890;4.726;2023-12-07T12:53:55;8.57;;;7.67;;
8803;SDS011;4438;50.890;4.726;2023-12-07T12:56:21;12.40;;;8.73;;
8803;SDS011;4438;50.890;4.726;2023-12-07T12:58:51;11.37;;;8.13;;
8803;SDS011;4438;50.890;4.726;2023-12-07T13:01:18;9.83;;;7.80;;
8803;SDS011;4438;50.890;4.726;2023-12-07T13:03:45;8.83;;;7.60;;
8803;SDS011;4438;50.890;4.726;2023-12-07T13:06:12;10.87;;;8.37;;
8803;SDS011;4438;50.890;4.726;2023-12-07T13:08:40;9.47;;;7.73;;
8803;SDS011;4438;50.890;4.726;2023-12-07T13:11:06;11.40;;;8.40;;
8803;SDS011;4438;50.890;4.726;2023-12-07T13:13:32;9.47;;;7.93;;
8803;SDS011;4438;50.890;4.726;2023-12-07T13:15:58;10.03;;;7.97;;
8803;SDS011;4438;50.890;4.726;2023-12-07T13:18:24;10.30;;;7.87;;
8803;SDS011;4438;50.890;4.726;2023-12-07T13:20:50;9.33;;;7.50;;
8803;SDS011;4438;50.890;4.726;2023-12-07T13:23:16;11.17;;;8.40;;
8803;SDS011;4438;50.890;4.726;2023-12-07T13:25:42;9.23;;;7.80;;
8803;SDS011;4438;50.890;4.726;2023-12-07T13:28:08;9.47;;;7.70;;
8803;SDS011;4438;50.890;4.726;2023-12-07T13:30:34;11.03;;;8.30;;
8803;SDS011;4438;50.890;4.726;2023-12-07T13:33:03;11.20;;;8.60;;
8803;SDS011;4438;50.890;4.726;2023-12-07T13:35:30;13.87;;;8.60;;
8803;SDS011;4438;50.890;4.726;2023-12-07T13:37:57;10.53;;;7.93;;
8803;SDS011;4438;50.890;4.726;2023-12-07T13:40:24;9.63;;;7.30;;
8803;SDS011;4438;50.890;4.726;2023-12-07T13:42:52;9.53;;;7.70;;
8803;SDS011;4438;50.890;4.726;2023-12-07T13:45:18;11.03;;;7.57;;
8803;SDS011;4438;50.890;4.726;2023-12-07T13:47:44;10.00;;;7.27;;
8803;SDS011;4438;50.890;4.726;2023-12-07T13:50:34;10.20;;;7.87;;
8803;SDS011;4438;50.890;4.726;2023-12-07T13:53:07;11.67;;;8.07;;
8803;SDS011;4438;50.890;4.726;2023-12-07T13:55:37;9.37;;;7.53;;
8803;SDS011;4438;50.890;4.726;2023-12-07T13:58:23;8.40;;;7.27;;
8803;SDS011;4438;50.890;4.726;2023-12-07T14:00:49;8.93;;;7.37;;
8803;SDS011;4438;50.890;4.726;2023-12-07T14:03:15;10.50;;;7.00;;
8803;SDS011;4438;50.890;4.726;2023-12-07T14:05:42;9.40;;;7.33;;
8803;SDS011;4438;50.890;4.726;2023-12-07T14:08:08;9.10;;;7.33;;
8803;SDS011;4438;50.890;4.726;2023-12-07T14:10:34;9.10;;;7.70;;
8803;SDS011;4438;50.890;4.726;2023-12-07T14:13:01;8.90;;;7.47;;
8803;SDS011;4438;50.890;4.726;2023-12-07T14:15:27;8.70;;;7.53;;
8803;SDS011;4438;50.890;4.726;2023-12-07T14:17:53;8.90;;;7.40;;
8803;SDS011;4438;50.890;4.726;2023-12-07T14:20:19;9.37;;;8.07;;
8803;SDS011;4438;50.890;4.726;2023-12-07T14:22:49;10.10;;;7.23;;
8803;SDS011;4438;50.890;4.726;2023-12-07T14:25:15;9.87;;;7.23;;
8803;SDS011;4438;50.890;4.726;2023-12-07T14:27:42;7.80;;;6.70;;
8803;SDS011;4438;50.890;4.726;2023-12-07T14:30:10;9.13;;;7.20;;
8803;SDS011;4438;50.890;4.726;2023-12-07T14:32:37;9.37;;;7.70;;
8803;SDS011;4438;50.890;4.726;2023-12-07T14:35:03;9.83;;;7.57;;
8803;SDS011;4438;50.890;4.726;2023-12-07T14:37:29;10.63;;;7.40;;
8803;SDS011;4438;50.890;4.726;2023-12-07T14:39:55;10.37;;;7.83;;
8803;SDS011;4438;50.890;4.726;2023-12-07T14:42:22;8.70;;;7.17;;
8803;SDS011;4438;50.890;4.726;2023-12-07T14:44:48;8.20;;;7.03;;
8803;SDS011;4438;50.890;4.726;2023-12-07T14:47:14;10.70;;;7.70;;
8803;SDS011;4438;50.890;4.726;2023-12-07T14:49:40;11.80;;;8.00;;
8803;SDS011;4438;50.890;4.726;2023-12-07T14:52:06;8.63;;;7.57;;
8803;SDS011;4438;50.890;4.726;2023-12-07T14:54:32;12.30;;;7.77;;